Time;durP1;ratioP1;P1;durP2;ratioP2;P2;SDS_P1;SDS_P2;PMS_P1;PMS_P2;Temp;Humidity;BMP_temperature;BMP_pressure;BME280_temperature;BME280_humidity;BME280_pressure;Samples;Min_cycle;Max_cycle;Signal;HPM_P1;HPM_P2
2022/05/31 00:00:06;;;;;;;7.32;2.83;;;;;;;16.09;56.92;99799.44;4350688;32;33598;-90
2022/05/31 00:02:42;;;;;;;5.80;3.10;;;;;;;16.30;55.52;99784.91;4338385;32;34531;-90
2022/05/31 00:05:20;;;;;;;5.10;3.05;;;;;;;16.05;56.42;99789.91;4338010;32;34954;-90
2022/05/31 00:07:53;;;;;;;5.75;3.03;;;;;;;15.86;57.32;99780.91;4362541;32;33072;-90
2022/05/31 00:10:24;;;;;;;5.10;2.67;;;;;;;15.97;57.19;99773.69;4350207;32;34436;-90
2022/05/31 00:12:57;;;;;;;6.40;2.65;;;;;;;15.83;57.48;99773.06;4350127;32;34386;-90
2022/05/31 00:15:29;;;;;;;4.50;2.47;;;;;;;15.86;57.35;99771.75;4337850;32;35156;-90
2022/05/31 00:17:59;;;;;;;5.25;2.58;;;;;;;15.93;56.85;99776.09;4337282;32;33793;-90
2022/05/31 00:20:32;;;;;;;5.28;2.70;;;;;;;15.85;57.01;99784.75;4337950;32;34461;-90
2022/05/31 00:23:08;;;;;;;6.95;2.80;;;;;;;15.87;57.24;99779.81;4350088;32;34377;-90
2022/05/31 00:25:40;;;;;;;6.15;2.50;;;;;;;15.90;57.19;99784.03;4350145;32;34252;-90
2022/05/31 00:28:11;;;;;;;5.75;2.42;;;;;;;15.80;57.48;99784.62;4350064;32;31246;-90
2022/05/31 00:30:43;;;;;;;5.68;2.80;;;;;;;15.67;57.76;99790.41;4350198;32;33435;-90
2022/05/31 00:33:16;;;;;;;3.87;2.30;;;;;;;15.73;57.36;99789.44;4349847;32;33692;-90
2022/05/31 00:35:48;;;;;;;5.40;2.60;;;;;;;15.90;56.56;99803.41;4349936;32;34018;-90
2022/05/31 00:38:20;;;;;;;4.60;2.33;;;;;;;15.95;56.24;99803.53;4349599;32;34055;-90
2022/05/31 00:41:22;;;;;;;7.40;2.37;;;;;;;15.74;56.71;99803.03;4350077;32;33926;-90
2022/05/31 00:43:41;;;;;;;3.85;1.95;;;;;;;15.72;56.77;99805.19;4349653;32;33836;-90
2022/05/31 00:46:11;;;;;;;4.47;2.47;;;;;;;15.65;56.79;99798.09;4344265;32;186677;-90
2022/05/31 00:48:51;;;;;;;5.95;2.40;;;;;;;15.68;56.67;99805.91;4337503;32;33391;-89
2022/05/31 00:51:22;;;;;;;4.72;2.58;;;;;;;15.59;56.79;99812.91;4350350;32;34249;-90
2022/05/31 00:53:58;;;;;;;4.30;2.30;;;;;;;15.69;56.46;99819.50;4349822;32;34414;-89
2022/05/31 00:56:31;;;;;;;6.53;2.55;;;;;;;15.73;56.32;99815.19;4337606;32;33585;-89
2022/05/31 00:59:07;;;;;;;5.65;2.55;;;;;;;15.66;56.60;99816.38;4349970;32;34093;-90
2022/05/31 01:01:42;;;;;;;6.82;2.72;;;;;;;15.63;56.82;99817.69;4348559;32;34228;-90
2022/05/31 01:04:13;;;;;;;6.12;2.95;;;;;;;15.60;57.06;99812.63;4349641;32;35157;-90
2022/05/31 01:06:47;;;;;;;5.32;2.85;;;;;;;15.67;56.90;99818.91;4337365;32;34135;-90
2022/05/31 01:09:17;;;;;;;5.80;2.72;;;;;;;15.55;57.48;99819.97;4337343;32;34415;-90
2022/05/31 01:11:52;;;;;;;4.97;2.60;;;;;;;15.47;57.54;99818.37;4337821;32;34078;-89
2022/05/31 01:14:24;;;;;;;5.03;2.80;;;;;;;15.43;57.51;99822.72;4363409;32;34430;-90
2022/05/31 01:17:00;;;;;;;6.50;2.90;;;;;;;15.56;57.01;99821.66;4350313;32;32196;-89
2022/05/31 01:22:34;;;;;;;5.62;3.00;;;;;;;15.53;56.81;99827.66;4349143;32;34268;-90
2022/05/31 01:25:12;;;;;;;4.87;3.00;;;;;;;15.39;57.32;99833.41;4349196;32;34398;-90
2022/05/31 01:27:44;;;;;;;7.12;2.90;;;;;;;15.27;57.81;99826.16;4349055;32;33468;-89
2022/05/31 01:30:12;;;;;;;4.90;2.65;;;;;;;15.31;57.73;99833.75;4349524;32;33887;-90
2022/05/31 01:32:45;;;;;;;5.80;2.78;;;;;;;15.33;57.65;99833.50;4349345;32;34882;-90
2022/05/31 01:35:23;;;;;;;4.75;2.45;;;;;;;15.42;57.27;99843.16;4349417;32;34538;-89
2022/05/31 01:38:08;;;;;;;7.03;2.85;;;;;;;15.33;57.46;99837.12;4349450;32;33577;-90
2022/05/31 01:40:44;;;;;;;5.80;2.50;;;;;;;15.38;57.15;99841.94;4349170;32;32911;-89
2022/05/31 01:43:17;;;;;;;4.72;2.85;;;;;;;15.08;58.01;99841.94;4337209;32;33269;-89
2022/05/31 01:45:55;;;;;;;6.55;2.90;;;;;;;15.05;57.83;99837.75;4349349;32;34742;-89
2022/05/31 01:48:33;;;;;;;5.43;2.50;;;;;;;15.20;57.39;99839.22;4349666;32;34597;-89
2022/05/31 01:51:06;;;;;;;5.32;2.90;;;;;;;15.14;57.32;99846.53;4348730;32;33282;-90
2022/05/31 01:53:47;;;;;;;5.65;3.08;;;;;;;15.10;57.47;99845.31;4349281;32;33348;-90
2022/05/31 01:56:21;;;;;;;6.93;3.10;;;;;;;14.97;57.75;99840.81;4349214;32;34502;-90
2022/05/31 01:58:54;;;;;;;5.77;2.90;;;;;;;14.81;58.33;99839.56;4337046;32;32425;-90
2022/05/31 02:01:39;;;;;;;8.45;3.10;;;;;;;15.08;57.55;99845.56;4337775;32;34011;-90
2022/05/31 02:04:07;;;;;;;6.18;2.80;;;;;;;15.12;56.85;99844.00;4349389;32;33720;-89
2022/05/31 02:06:49;;;;;;;5.55;3.25;;;;;;;14.99;57.29;99844.19;4348657;32;32969;-85
2022/05/31 02:09:39;;;;;;;7.15;3.30;;;;;;;14.77;58.27;99846.66;4348512;32;34344;-92
2022/05/31 02:12:12;;;;;;;5.40;3.17;;;;;;;14.88;58.40;99852.47;4337475;32;31837;-92
2022/05/31 02:14:48;;;;;;;6.07;3.40;;;;;;;15.06;57.76;99849.63;4351090;32;33635;-92
2022/05/31 02:17:24;;;;;;;5.68;2.95;;;;;;;15.05;57.67;99853.47;4350617;32;35772;-92
2022/05/31 02:20:05;;;;;;;5.72;3.25;;;;;;;15.05;57.65;99854.31;4339433;32;34758;-92
2022/05/31 02:22:41;;;;;;;8.52;4.07;;;;;;;14.98;57.87;99844.44;4350667;32;34350;-91
2022/05/31 02:25:12;;;;;;;5.70;3.28;;;;;;;14.98;57.93;99842.50;4350665;32;34484;-92
2022/05/31 02:27:48;;;;;;;5.68;3.33;;;;;;;14.90;58.13;99855.84;4350605;32;34878;-94
2022/05/31 02:30:23;;;;;;;4.87;2.92;;;;;;;14.91;57.97;99846.47;4350671;32;35682;-92
2022/05/31 02:32:54;;;;;;;5.62;2.87;;;;;;;14.92;57.85;99849.00;4350978;32;32969;-92
2022/05/31 02:35:26;;;;;;;5.93;3.20;;;;;;;14.90;57.66;99851.16;4338193;32;34516;-92
2022/05/31 02:37:59;;;;;;;6.30;3.03;;;;;;;14.82;57.75;99855.09;4350501;32;35161;-92
2022/05/31 02:40:32;;;;;;;5.43;2.83;;;;;;;14.85;57.54;99862.06;4362881;32;34399;-92
2022/05/31 02:43:11;;;;;;;9.23;3.50;;;;;;;14.79;57.56;99854.69;4351362;32;33320;-91
2022/05/31 02:45:45;;;;;;;6.07;3.22;;;;;;;14.70;57.72;99859.69;4338833;32;32375;-91
2022/05/31 02:48:20;;;;;;;6.05;3.20;;;;;;;14.75;57.53;99862.63;4351129;32;34292;-91
2022/05/31 02:50:57;;;;;;;5.63;3.23;;;;;;;14.74;57.61;99869.22;4363254;32;34468;-92
2022/05/31 02:53:31;;;;;;;5.53;2.90;;;;;;;14.79;57.34;99865.75;4351043;32;33328;-91
2022/05/31 02:56:03;;;;;;;4.78;2.87;;;;;;;14.70;57.50;99872.66;4363143;32;34304;-91
2022/05/31 02:58:44;;;;;;;7.30;3.20;;;;;;;14.55;57.85;99870.28;4339095;32;34680;-91
2022/05/31 03:01:25;;;;;;;5.50;3.00;;;;;;;14.67;57.60;99862.91;4338618;32;35191;-91
2022/05/31 03:04:05;;;;;;;5.18;3.15;;;;;;;14.76;57.46;99864.28;4351027;32;33198;-92
2022/05/31 03:06:47;;;;;;;5.85;3.35;;;;;;;14.76;57.36;99858.78;4339286;32;34399;-92
2022/05/31 03:09:20;;;;;;;6.40;3.22;;;;;;;14.75;57.45;99856.25;4350337;32;35931;-92
2022/05/31 03:11:59;;;;;;;5.85;3.42;;;;;;;14.75;57.53;99859.84;4338087;32;32334;-92
2022/05/31 03:14:53;;;;;;;6.32;3.50;;;;;;;14.82;57.54;99855.09;4350866;32;33382;-92
2022/05/31 03:18:05;;;;;;;8.27;4.28;;;;;;;14.73;57.80;99856.47;4350462;32;32787;-91
2022/05/31 03:20:42;;;;;;;7.03;3.58;;;;;;;14.72;58.07;99857.53;4329834;32;32937;-92
2022/05/31 03:23:37;;;;;;;6.37;3.35;;;;;;;14.60;58.66;99853.88;4350314;32;34775;-92
2022/05/31 03:26:08;;;;;;;7.80;3.35;;;;;;;14.66;58.64;99857.63;4362558;32;33152;-92
2022/05/31 03:28:41;;;;;;;8.40;3.42;;;;;;;14.72;58.54;99853.94;4350225;32;33330;-91
2022/05/31 03:31:16;;;;;;;5.53;3.00;;;;;;;14.72;58.59;99853.94;4350568;32;35078;-92
2022/05/31 03:33:53;;;;;;;;;;;;;;;14.62;58.85;99848.97;4350882;32;33959;-93
2022/05/31 03:36:31;;;;;;;5.70;3.10;;;;;;;14.67;58.97;99859.31;4338748;32;32001;-91
2022/05/31 03:39:07;;;;;;;5.57;3.28;;;;;;;14.76;58.53;99861.53;4350212;32;33209;-91
2022/05/31 03:41:35;;;;;;;14.95;8.95;;;;;;;14.54;58.96;99857.56;4350165;32;32942;-90
2022/05/31 03:44:09;;;;;;;13.05;6.85;;;;;;;14.54;58.93;99862.25;4347818;33;33711;-91
2022/05/31 03:46:47;;;;;;;6.93;4.15;;;;;;;14.60;58.69;99867.69;4347339;33;32749;-91
2022/05/31 03:49:18;;;;;;;6.53;3.75;;;;;;;14.62;58.68;99865.53;4359299;32;32874;-91
2022/05/31 03:51:52;;;;;;;7.05;3.40;;;;;;;14.63;58.74;99864.47;4347625;33;34323;-91
2022/05/31 03:54:27;;;;;;;7.95;3.62;;;;;;;14.56;59.32;99873.91;4347903;33;34235;-92
2022/05/31 03:57:02;;;;;;;7.28;3.92;;;;;;;14.70;58.87;99869.91;4348016;33;31656;-93
2022/05/31 03:59:36;;;;;;;6.78;4.00;;;;;;;14.67;59.04;99871.22;4347754;32;32266;-93
2022/05/31 04:02:10;;;;;;;9.95;3.78;;;;;;;14.79;58.92;99876.81;4347643;33;33943;-92
2022/05/31 04:04:39;;;;;;;6.85;3.92;;;;;;;14.93;58.56;99874.72;4347651;33;33119;-93
2022/05/31 04:07:13;;;;;;;6.55;3.67;;;;;;;14.86;58.98;99883.09;4360138;32;33275;-92
2022/05/31 04:09:47;;;;;;;8.15;4.10;;;;;;;14.82;59.78;99881.88;4347430;33;33059;-92
2022/05/31 04:12:18;;;;;;;7.82;3.92;;;;;;;14.94;60.10;99891.06;4347657;32;34171;-93
2022/05/31 04:14:55;;;;;;;8.43;4.15;;;;;;;14.82;61.19;99885.47;4334587;33;32114;-95
2022/05/31 04:17:26;;;;;;;5.97;3.65;;;;;;;14.78;61.47;99884.25;4359516;32;31933;-90
2022/05/31 04:20:00;;;;;;;7.65;4.18;;;;;;;14.78;61.64;99875.97;4359262;32;34429;-92
2022/05/31 04:22:28;;;;;;;8.38;4.12;;;;;;;15.02;60.90;99876.91;4335019;33;34413;-91
2022/05/31 04:25:01;;;;;;;6.78;3.53;;;;;;;15.23;60.26;99875.56;4359853;32;34737;-92
2022/05/31 04:27:38;;;;;;;7.07;3.85;;;;;;;15.26;60.36;99874.25;4335756;33;32124;-92
2022/05/31 04:30:13;;;;;;;6.32;3.60;;;;;;;15.34;61.57;99866.44;4360305;32;32260;-92
2022/05/31 04:32:55;;;;;;;8.02;3.72;;;;;;;15.38;61.77;99869.59;4347188;33;33449;-93
2022/05/31 04:35:26;;;;;;;7.25;3.72;;;;;;;15.55;61.41;99872.53;4360072;32;33920;-91
2022/05/31 04:38:01;;;;;;;10.63;4.32;;;;;;;15.62;61.30;99876.03;4347247;33;32691;-94
2022/05/31 04:40:38;;;;;;;8.88;5.37;;;;;;;15.67;61.33;99867.88;4360103;32;33769;-94
2022/05/31 04:43:10;;;;;;;9.57;5.10;;;;;;;15.77;61.24;99868.12;4347359;32;32859;-88
2022/05/31 04:45:45;;;;;;;7.60;3.80;;;;;;;15.81;61.14;99869.34;4359538;32;33976;-88
2022/05/31 04:48:14;;;;;;;8.45;5.20;;;;;;;15.94;60.67;99863.56;4347954;32;31976;-89
2022/05/31 04:50:47;;;;;;;7.57;4.05;;;;;;;15.98;60.92;99867.56;4347313;33;34539;-89
2022/05/31 04:53:15;;;;;;;8.32;4.28;;;;;;;16.02;61.38;99863.22;4347396;32;33980;-88
2022/05/31 04:55:52;;;;;;;9.35;5.22;;;;;;;16.13;61.54;99867.06;4359718;32;34707;-91
2022/05/31 04:58:25;;;;;;;11.20;5.68;;;;;;;16.18;61.87;99874.66;4347490;33;33267;-89
2022/05/31 05:00:55;;;;;;;7.37;4.37;;;;;;;16.33;61.49;99870.28;4347370;32;33126;-89
2022/05/31 05:03:22;;;;;;;6.85;3.95;;;;;;;16.44;61.12;99866.66;4349546;32;34408;-88
2022/05/31 05:05:55;;;;;;;5.87;3.30;;;;;;;16.43;61.43;99864.16;4337748;32;33142;-89
2022/05/31 05:08:25;;;;;;;7.32;3.90;;;;;;;16.50;61.25;99862.09;4340218;32;33372;-87
2022/05/31 05:11:00;;;;;;;8.95;5.25;;;;;;;16.58;61.34;99861.72;4348337;32;33516;-87
2022/05/31 05:13:54;;;;;;;18.30;11.43;;;;;;;16.68;61.35;99863.91;4337043;33;34226;-88
2022/05/31 05:16:35;;;;;;;11.30;6.47;;;;;;;16.78;59.93;99870.50;4335301;33;33663;-87
2022/05/31 05:19:12;;;;;;;7.50;2.92;;;;;;;16.72;60.28;99871.47;4345785;33;33120;-87
2022/05/31 05:21:42;;;;;;;10.00;5.40;;;;;;;16.79;60.02;99869.41;4344942;33;32034;-89
2022/05/31 05:24:10;;;;;;;5.95;3.30;;;;;;;17.01;58.49;99872.34;4319562;33;33113;-88
2022/05/31 05:26:39;;;;;;;7.00;2.92;;;;;;;17.09;57.86;99871.94;4321239;33;32482;-88
2022/05/31 05:32:10;;;;;;;6.68;2.97;;;;;;;17.50;57.26;99878.28;4347045;33;33930;-87
2022/05/31 05:34:43;;;;;;;11.90;3.30;;;;;;;17.50;57.12;99869.13;4322982;33;32755;-88
2022/05/31 05:37:16;;;;;;;5.87;2.70;;;;;;;17.47;56.68;99872.37;4346640;33;33069;-88
2022/05/31 05:39:45;;;;;;;11.68;3.47;;;;;;;17.58;56.53;99868.69;4346562;33;32210;-88
2022/05/31 05:42:24;;;;;;;7.25;2.35;;;;;;;17.79;55.71;99865.19;4338236;32;33373;-88
2022/05/31 05:44:59;;;;;;;5.93;2.87;;;;;;;17.84;55.26;99867.22;4349712;32;34531;-88
2022/05/31 05:47:27;;;;;;;8.32;3.28;;;;;;;17.90;55.27;99867.06;4349453;32;32546;-88
2022/05/31 05:50:00;;;;;;;7.18;3.42;;;;;;;18.34;54.48;99867.16;4339078;32;32974;-88
2022/05/31 05:52:35;;;;;;;6.18;3.37;;;;;;;18.22;54.90;99867.25;4351031;32;32308;-89
2022/05/31 05:55:12;;;;;;;12.07;4.68;;;;;;;18.00;56.40;99872.78;4351903;32;33925;-88
2022/05/31 05:57:45;;;;;;;7.37;3.40;;;;;;;17.99;55.33;99870.25;4327791;32;33574;-88
2022/05/31 06:00:47;;;;;;;5.97;2.80;;;;;;;18.02;55.67;99872.53;4341587;32;31975;-88
2022/05/31 06:03:50;;;;;;;6.45;2.53;;;;;;;18.34;54.47;99879.13;4338761;32;32108;-86
2022/05/31 06:06:27;;;;;;;5.05;2.20;;;;;;;18.35;54.65;99879.97;4331173;32;34404;-86
2022/05/31 06:09:13;;;;;;;5.45;2.25;;;;;;;18.27;54.47;99877.59;4338748;32;33477;-86
2022/05/31 06:12:08;;;;;;;5.45;2.08;;;;;;;18.08;56.08;99880.69;4350298;32;31619;-86
2022/05/31 06:14:40;;;;;;;5.25;2.00;;;;;;;18.35;54.36;99880.78;4349421;32;34305;-86
2022/05/31 06:17:37;;;;;;;5.25;2.30;;;;;;;18.24;55.02;99883.69;4338807;32;32951;-86
2022/05/31 06:20:09;;;;;;;5.62;2.40;;;;;;;18.42;54.56;99892.56;4351016;32;34256;-86
2022/05/31 06:22:41;;;;;;;4.95;2.10;;;;;;;18.35;55.13;99889.13;4338706;32;31934;-86
2022/05/31 06:25:13;;;;;;;5.93;2.37;;;;;;;18.60;53.21;99887.81;4338961;32;32202;-86
2022/05/31 06:27:48;;;;;;;5.65;2.35;;;;;;;18.61;53.38;99895.94;4338748;32;33804;-86
2022/05/31 06:30:19;;;;;;;5.03;2.05;;;;;;;18.55;52.86;99880.25;4338568;32;32661;-86
2022/05/31 06:32:48;;;;;;;5.32;2.05;;;;;;;18.79;53.04;99886.47;4338620;32;31754;-86
2022/05/31 06:35:22;;;;;;;4.47;2.20;;;;;;;18.79;53.16;99899.53;4338659;32;32570;-86
2022/05/31 06:37:53;;;;;;;4.40;2.20;;;;;;;18.83;52.12;99904.31;4351003;32;35327;-86
2022/05/31 06:40:24;;;;;;;4.97;2.05;;;;;;;18.87;50.72;99904.59;4339034;32;34024;-86
2022/05/31 06:42:59;;;;;;;5.40;2.10;;;;;;;19.05;50.91;99912.63;4324193;33;32872;-87
2022/05/31 06:45:35;;;;;;;5.85;2.35;;;;;;;19.22;50.05;99912.56;4348411;33;33472;-86
2022/05/31 06:48:11;;;;;;;8.90;3.75;;;;;;;19.29;50.20;99910.44;4336236;33;34406;-86
2022/05/31 06:50:50;;;;;;;14.43;3.55;;;;;;;19.54;49.05;99904.31;4324830;33;32551;-86
2022/05/31 06:58:58;;;;;;;6.53;3.28;;;;;;;19.61;49.07;99899.38;4336498;33;34226;-83
2022/05/31 07:01:37;;;;;;;7.32;2.92;;;;;;;19.62;49.21;99898.25;4335851;33;32607;-83
2022/05/31 07:04:16;;;;;;;4.97;1.70;;;;;;;19.74;49.56;99901.72;4336980;32;31942;-82
2022/05/31 07:06:55;;;;;;;4.82;1.80;;;;;;;19.81;50.22;99893.16;4362562;32;33396;-82
2022/05/31 07:09:29;;;;;;;4.03;1.75;;;;;;;19.56;50.32;99896.53;4350912;32;33044;-82
2022/05/31 07:12:04;;;;;;;12.43;2.97;;;;;;;19.78;48.12;99894.53;4351113;32;32462;-82
2022/05/31 07:14:37;;;;;;;4.93;2.20;;;;;;;20.34;46.90;99890.25;4350587;32;31856;-83
2022/05/31 07:17:09;;;;;;;4.65;1.85;;;;;;;20.15;47.85;99891.75;4351129;32;33950;-84
2022/05/31 07:19:46;;;;;;;5.28;1.70;;;;;;;19.85;47.56;99895.16;4337767;32;33836;-83
2022/05/31 07:22:41;;;;;;;5.00;2.20;;;;;;;19.94;48.63;99898.28;4362648;32;32361;-83
2022/05/31 07:25:15;;;;;;;5.07;2.00;;;;;;;19.61;47.44;99899.38;4339339;32;31897;-91
2022/05/31 07:28:00;;;;;;;4.55;2.17;;;;;;;19.79;48.11;99895.37;4339589;32;32837;-88
2022/05/31 07:30:31;;;;;;;5.25;2.10;;;;;;;19.89;47.11;99895.47;4350456;32;34404;-87
2022/05/31 07:33:08;;;;;;;4.85;2.50;;;;;;;20.23;47.59;99904.38;4350552;32;34037;-89
2022/05/31 07:36:01;;;;;;;5.32;2.33;;;;;;;20.20;47.38;99902.94;4343100;32;32554;-88
2022/05/31 07:38:41;;;;;;;7.28;3.22;;;;;;;20.22;47.72;99899.91;4351035;32;34722;-88
2022/05/31 07:41:18;;;;;;;7.90;3.00;;;;;;;20.18;46.99;99899.59;4350989;32;34408;-88
2022/05/31 07:43:52;;;;;;;6.25;2.70;;;;;;;20.36;47.13;99906.69;4361639;32;34069;-87
2022/05/31 07:46:31;;;;;;;5.50;2.70;;;;;;;20.56;46.39;99906.88;4351233;32;31833;-87
2022/05/31 07:49:05;;;;;;;6.18;2.70;;;;;;;20.56;46.82;99901.28;4362629;32;33559;-87
2022/05/31 07:51:40;;;;;;;7.30;2.62;;;;;;;20.64;46.34;99909.16;4362925;32;33937;-88
2022/05/31 07:54:11;;;;;;;5.45;2.85;;;;;;;20.56;47.09;99904.09;4350656;32;32328;-88
2022/05/31 07:56:50;;;;;;;10.18;3.28;;;;;;;20.63;45.52;99913.06;4350690;32;32012;-88
2022/05/31 07:59:23;;;;;;;19.95;12.68;;;;;;;20.75;46.29;99914.78;4350796;32;32220;-88
2022/05/31 08:01:59;;;;;;;12.15;5.57;;;;;;;20.89;45.84;99918.75;4351187;32;34384;-88
2022/05/31 08:04:30;;;;;;;8.15;4.03;;;;;;;21.05;44.88;99917.72;4350032;32;32724;-88
2022/05/31 08:07:01;;;;;;;24.75;19.52;;;;;;;21.17;45.32;99914.69;4362440;32;32740;-88
2022/05/31 08:09:35;;;;;;;11.02;5.80;;;;;;;21.18;44.87;99908.84;4350023;32;34681;-86
2022/05/31 08:12:26;;;;;;;7.15;3.80;;;;;;;21.13;44.49;99916.34;4362381;32;35217;-88
2022/05/31 08:15:06;;;;;;;5.07;2.40;;;;;;;21.18;45.48;99920.00;4362384;32;33306;-83
2022/05/31 08:17:46;;;;;;;5.95;3.28;;;;;;;21.49;45.16;99917.31;4362782;32;31810;-84
2022/05/31 08:20:25;;;;;;;7.82;3.92;;;;;;;21.69;43.90;99920.16;4362369;32;34095;-83
2022/05/31 08:23:02;;;;;;;6.03;3.60;;;;;;;21.79;42.58;99911.81;4362530;32;33029;-84
2022/05/31 08:25:40;;;;;;;6.95;3.08;;;;;;;22.09;41.62;99921.38;4362538;32;34808;-84
2022/05/31 08:28:18;;;;;;;7.25;3.80;;;;;;;21.95;41.90;99915.47;4362461;32;32566;-84
2022/05/31 08:31:04;;;;;;;8.70;3.60;;;;;;;21.83;43.00;99918.53;4350307;32;32428;-84
2022/05/31 08:33:39;;;;;;;7.05;3.25;;;;;;;21.96;43.84;99923.56;4362421;32;33320;-84
2022/05/31 08:36:16;;;;;;;8.82;3.55;;;;;;;21.99;43.53;99919.38;4350184;32;32655;-84
2022/05/31 08:38:54;;;;;;;6.32;3.30;;;;;;;22.02;43.75;99922.50;4350004;32;31469;-84
2022/05/31 08:41:29;;;;;;;6.10;3.80;;;;;;;21.83;44.12;99924.09;4347808;32;33180;-83
2022/05/31 08:44:12;;;;;;;13.65;3.33;;;;;;;22.10;43.63;99929.44;4349810;32;32832;-83
2022/05/31 08:46:50;;;;;;;12.80;6.82;;;;;;;22.20;44.11;99931.41;4331989;32;33118;-83
2022/05/31 08:51:52;;;;;;;10.15;4.32;;;;;;;22.32;43.70;99918.84;4346204;32;33663;-83
2022/05/31 08:52:50;;;;;;;8.45;3.83;;;;;;;22.48;43.16;99919.66;4345935;32;33418;-82
2022/05/31 08:58:56;;;;;;;8.25;4.80;;;;;;;22.70;41.52;99918.50;4350467;32;33442;-83
2022/05/31 09:01:35;;;;;;;9.68;5.47;;;;;;;22.64;42.07;99915.72;4346630;32;33111;-83
2022/05/31 09:04:20;;;;;;;9.98;4.22;;;;;;;22.61;42.58;99916.28;4350122;32;33950;-82
2022/05/31 09:07:20;;;;;;;10.80;3.33;;;;;;;22.57;42.55;99908.75;4349962;32;34248;-83
2022/05/31 09:10:12;;;;;;;7.37;3.33;;;;;;;22.49;42.95;99915.75;4350121;32;33501;-83
2022/05/31 09:12:53;;;;;;;10.23;3.53;;;;;;;22.47;42.04;99915.19;4349457;32;34060;-83
2022/05/31 09:15:29;;;;;;;6.50;3.05;;;;;;;22.44;42.48;99915.75;4337211;32;33100;-83
2022/05/31 09:18:10;;;;;;;6.80;2.97;;;;;;;22.55;41.96;99909.03;4349628;32;34373;-83
2022/05/31 09:20:40;;;;;;;6.75;2.92;;;;;;;22.71;42.18;99907.03;4361854;32;33904;-83
2022/05/31 09:23:17;;;;;;;7.82;3.33;;;;;;;22.95;40.83;99910.88;4336121;32;31793;-82
2022/05/31 09:25:50;;;;;;;8.85;3.05;;;;;;;22.90;40.54;99904.47;4337504;32;33107;-82
2022/05/31 09:28:36;;;;;;;8.65;4.47;;;;;;;22.58;42.31;99904.81;4349457;32;33560;-83
2022/05/31 09:31:17;;;;;;;8.75;3.58;;;;;;;22.63;42.21;99907.59;4349440;32;34195;-83
2022/05/31 09:34:22;;;;;;;6.37;3.40;;;;;;;22.87;41.54;99911.47;4350757;32;31879;-83
2022/05/31 09:37:00;;;;;;;5.47;3.10;;;;;;;22.55;42.71;99910.97;4349565;32;34230;-83
2022/05/31 09:39:43;;;;;;;8.40;3.50;;;;;;;22.61;42.56;99910.69;4349142;32;33918;-84
2022/05/31 09:42:23;;;;;;;5.95;2.65;;;;;;;22.59;42.81;99910.13;4363119;32;33581;-83
2022/05/31 09:45:04;;;;;;;7.03;3.33;;;;;;;22.89;40.76;99905.59;4351964;32;32711;-84
2022/05/31 09:47:38;;;;;;;9.07;3.17;;;;;;;22.71;40.98;99897.81;4351949;32;33916;-84
2022/05/31 09:50:22;;;;;;;9.10;3.30;;;;;;;22.88;41.75;99906.72;4352150;32;35216;-84
2022/05/31 09:57:05;;;;;;;8.35;2.92;;;;;;;22.59;42.62;99904.53;4352096;32;33773;-83
2022/05/31 09:59:24;;;;;;;7.22;3.65;;;;;;;22.89;41.72;99900.81;4353311;32;32624;-83
2022/05/31 10:02:21;;;;;;;6.93;3.20;;;;;;;22.95;41.19;99904.44;4330935;32;35182;-84
2022/05/31 10:04:50;;;;;;;6.07;3.45;;;;;;;22.97;41.42;99899.41;4347302;32;32599;-84
2022/05/31 10:07:33;;;;;;;6.93;3.33;;;;;;;22.98;41.46;99895.47;4351442;32;33957;-84
2022/05/31 10:10:11;;;;;;;6.55;3.17;;;;;;;22.89;41.35;99889.63;4351131;32;32377;-84
2022/05/31 10:12:56;;;;;;;5.70;2.78;;;;;;;23.07;41.19;99890.97;4339436;32;33028;-85
2022/05/31 10:15:40;;;;;;;14.65;7.18;;;;;;;23.06;41.45;99877.25;4351530;32;32517;-84
2022/05/31 10:18:15;;;;;;;8.63;4.00;;;;;;;22.92;42.05;99885.44;4361753;32;32729;-84
2022/05/31 10:21:04;;;;;;;7.80;3.93;;;;;;;22.84;43.68;99881.25;4351690;32;33606;-85
2022/05/31 10:23:39;;;;;;;6.43;2.80;;;;;;;23.24;43.85;99882.22;4351388;32;32910;-84
2022/05/31 10:26:31;;;;;;;7.45;3.30;;;;;;;23.38;42.38;99880.47;4340073;32;32018;-84
2022/05/31 10:29:25;;;;;;;22.92;8.00;;;;;;;23.40;40.57;99882.97;4339482;32;31872;-84
2022/05/31 10:31:59;;;;;;;21.25;7.07;;;;;;;23.17;44.42;99890.94;4351649;32;33681;-90
2022/05/31 10:34:44;;;;;;;43.78;15.00;;;;;;;23.19;44.29;99891.47;4353085;32;34223;-85
2022/05/31 10:37:27;;;;;;;79.25;42.42;;;;;;;23.36;43.28;99884.69;4353079;32;32443;-84
2022/05/31 10:40:07;;;;;;;53.38;39.38;;;;;;;23.36;43.07;99881.88;4365700;32;34526;-91
2022/05/31 10:42:38;;;;;;;444.13;293.58;;;;;;;23.24;43.44;99880.25;4354567;32;33924;-92
2022/05/31 10:45:16;;;;;;;56.97;36.33;;;;;;;23.42;41.99;99877.88;4353390;32;32787;-92
2022/05/31 10:47:53;;;;;;;60.72;39.38;;;;;;;23.13;42.72;99878.63;4353570;32;32025;-91
2022/05/31 10:50:33;;;;;;;17.52;10.30;;;;;;;23.26;42.17;99880.81;4353249;32;32811;-92
2022/05/31 10:53:35;;;;;;;127.30;81.37;;;;;;;23.27;42.47;99882.47;4365925;32;33640;-92
2022/05/31 10:56:15;;;;;;;70.32;44.20;;;;;;;23.36;41.41;99887.47;4313275;32;32914;-92
2022/05/31 10:58:53;;;;;;;36.08;22.45;;;;;;;23.53;41.29;99885.09;4366448;32;33903;-91
2022/05/31 11:01:49;;;;;;;64.93;45.05;;;;;;;23.63;40.91;99882.28;4353452;32;31677;-89
2022/05/31 11:04:30;;;;;;;14.65;8.80;;;;;;;23.57;41.12;99877.84;4366073;32;35146;-86
2022/05/31 11:07:18;;;;;;;8.60;4.75;;;;;;;23.56;40.62;99878.97;4354108;32;34031;-91
2022/05/31 11:13:18;;;;;;;26.50;14.40;;;;;;;24.38;39.15;99873.56;4369708;32;34243;-85
2022/05/31 11:16:05;;;;;;;26.15;17.33;;;;;;;24.51;40.09;99865.28;4365575;32;33560;-84
2022/05/31 11:18:56;;;;;;;7.35;3.92;;;;;;;24.61;40.71;99864.34;4360222;32;35304;-84
2022/05/31 11:21:46;;;;;;;9.13;4.65;;;;;;;24.84;38.28;99857.88;4365348;32;32496;-84
2022/05/31 11:24:36;;;;;;;7.05;4.25;;;;;;;25.31;36.43;99866.56;4377475;32;31519;-84
2022/05/31 11:27:38;;;;;;;10.77;4.82;;;;;;;25.11;37.59;99862.91;4377675;32;34001;-84
2022/05/31 11:30:21;;;;;;;7.60;3.70;;;;;;;25.32;37.39;99855.03;4365154;32;33897;-84
2022/05/31 11:33:11;;;;;;;11.82;4.57;;;;;;;25.07;36.58;99852.56;4353171;32;31870;-84
2022/05/31 11:35:44;;;;;;;5.93;2.45;;;;;;;25.41;36.92;99850.38;4365204;32;31960;-83
2022/05/31 11:42:04;;;;;;;6.68;2.83;;;;;;;25.70;36.84;99846.63;4378543;32;34328;-85
2022/05/31 11:45:03;;;;;;;10.70;6.15;;;;;;;25.82;34.97;99839.38;4364397;32;32548;-85
2022/05/31 11:47:53;;;;;;;14.75;6.45;;;;;;;25.53;35.53;99844.31;4377097;32;33279;-86
2022/05/31 11:50:24;;;;;;;14.20;9.95;;;;;;;25.37;36.61;99842.88;4364983;32;33158;-86
2022/05/31 11:53:12;;;;;;;9.35;4.80;;;;;;;25.37;36.86;99846.50;4377337;32;34195;-83
2022/05/31 11:55:52;;;;;;;8.10;3.95;;;;;;;25.27;37.55;99833.47;4365132;32;32483;-84
2022/05/31 11:58:36;;;;;;;7.75;3.15;;;;;;;25.63;36.27;99830.09;4365202;32;34172;-84
2022/05/31 12:01:09;;;;;;;5.93;3.03;;;;;;;25.73;36.07;99831.94;4377217;32;33561;-86
2022/05/31 12:04:04;;;;;;;9.50;3.20;;;;;;;25.76;35.13;99834.16;4365368;32;33745;-85
2022/05/31 12:06:53;;;;;;;6.12;3.05;;;;;;;25.75;35.41;99827.69;4352807;32;33646;-84
2022/05/31 12:09:33;;;;;;;8.73;3.72;;;;;;;25.67;35.46;99831.19;4365778;32;33439;-84
2022/05/31 12:12:09;;;;;;;6.68;3.45;;;;;;;25.52;36.29;99828.59;4377334;32;32411;-84
2022/05/31 12:14:48;;;;;;;10.43;4.37;;;;;;;25.57;36.93;99814.47;4352757;32;33914;-84
2022/05/31 12:17:21;;;;;;;7.50;4.00;;;;;;;25.68;36.47;99812.34;4377285;32;33938;-83
2022/05/31 12:20:10;;;;;;;6.37;4.32;;;;;;;25.46;36.32;99808.16;4377411;32;33192;-82
2022/05/31 12:22:56;;;;;;;6.97;4.10;;;;;;;25.70;35.81;99799.66;4376620;32;33734;-82
2022/05/31 12:25:31;;;;;;;8.07;4.70;;;;;;;26.09;34.57;99804.88;4364979;32;35474;-84
2022/05/31 12:28:22;;;;;;;11.70;9.05;;;;;;;25.90;33.91;99802.13;4365103;32;32564;-84
2022/05/31 12:31:01;;;;;;;7.78;4.28;;;;;;;26.30;34.56;99798.88;4365156;32;34229;-82
2022/05/31 12:33:40;;;;;;;8.57;4.18;;;;;;;26.45;34.20;99795.81;4365001;32;34501;-84
2022/05/31 12:36:12;;;;;;;9.95;4.60;;;;;;;26.70;34.48;99786.81;4377138;32;32897;-84
2022/05/31 12:39:06;;;;;;;8.13;4.47;;;;;;;26.78;33.50;99782.44;4376737;32;32408;-82
2022/05/31 12:41:43;;;;;;;9.25;5.30;;;;;;;26.74;33.50;99781.38;4364894;32;33064;-85
2022/05/31 12:44:27;;;;;;;7.65;5.28;;;;;;;26.40;33.93;99779.00;4362009;32;33618;-85
2022/05/31 12:47:29;;;;;;;8.23;5.40;;;;;;;26.22;33.96;99784.38;4362349;32;32914;-84